sensor_id;sensor_type;location;lat;lon;timestamp;temperature;humidity
67862;DHT22;54665;51.462;6.698;2022-07-05T00:00:50;15.62;73.20
67862;DHT22;54665;51.462;6.698;2022-07-05T00:03:15;15.59;72.86
67862;DHT22;54665;51.462;6.698;2022-07-05T00:05:41;15.58;72.68
67862;DHT22;54665;51.462;6.698;2022-07-05T00:08:07;15.54;72.37
67862;DHT22;54665;51.462;6.698;2022-07-05T00:10:34;15.44;73.16
67862;DHT22;54665;51.462;6.698;2022-07-05T00:13:00;15.36;73.82
67862;DHT22;54665;51.462;6.698;2022-07-05T00:15:26;15.34;72.94
67862;DHT22;54665;51.462;6.698;2022-07-05T00:17:51;15.45;72.05
67862;DHT22;54665;51.462;6.698;2022-07-05T00:20:17;15.42;72.37
67862;DHT22;54665;51.462;6.698;2022-07-05T00:22:42;15.48;72.47
67862;DHT22;54665;51.462;6.698;2022-07-05T00:25:08;15.58;72.65
67862;DHT22;54665;51.462;6.698;2022-07-05T00:27:33;15.75;71.35
67862;DHT22;54665;51.462;6.698;2022-07-05T00:29:59;16.03;70.13
67862;DHT22;54665;51.462;6.698;2022-07-05T00:32:24;16.24;70.02
67862;DHT22;54665;51.462;6.698;2022-07-05T00:34:50;16.33;69.56
67862;DHT22;54665;51.462;6.698;2022-07-05T00:37:15;16.53;68.79
67862;DHT22;54665;51.462;6.698;2022-07-05T00:39:41;16.67;68.24
67862;DHT22;54665;51.462;6.698;2022-07-05T00:42:06;16.71;68.49
67862;DHT22;54665;51.462;6.698;2022-07-05T00:44:34;16.65;68.60
67862;DHT22;54665;51.462;6.698;2022-07-05T00:47:04;16.60;68.78
67862;DHT22;54665;51.462;6.698;2022-07-05T00:49:30;16.60;69.22
67862;DHT22;54665;51.462;6.698;2022-07-05T00:51:55;16.50;69.87
67862;DHT22;54665;51.462;6.698;2022-07-05T00:54:26;16.38;70.05
67862;DHT22;54665;51.462;6.698;2022-07-05T00:56:52;16.26;69.84
67862;DHT22;54665;51.462;6.698;2022-07-05T00:59:17;16.09;70.12
67862;DHT22;54665;51.462;6.698;2022-07-05T01:01:43;16.09;70.26
67862;DHT22;54665;51.462;6.698;2022-07-05T01:04:10;16.09;70.28
67862;DHT22;54665;51.462;6.698;2022-07-05T01:06:36;16.26;69.21
67862;DHT22;54665;51.462;6.698;2022-07-05T01:09:02;16.40;67.90
67862;DHT22;54665;51.462;6.698;2022-07-05T01:11:27;16.46;67.73
67862;DHT22;54665;51.462;6.698;2022-07-05T01:13:54;16.51;67.88
67862;DHT22;54665;51.462;6.698;2022-07-05T01:16:20;16.50;68.04
67862;DHT22;54665;51.462;6.698;2022-07-05T01:18:45;16.38;68.41
67862;DHT22;54665;51.462;6.698;2022-07-05T01:21:13;16.30;69.16
67862;DHT22;54665;51.462;6.698;2022-07-05T01:23:39;16.20;69.29
67862;DHT22;54665;51.462;6.698;2022-07-05T01:26:06;16.14;69.48
67862;DHT22;54665;51.462;6.698;2022-07-05T01:28:32;16.06;69.63
67862;DHT22;54665;51.462;6.698;2022-07-05T01:31:00;16.02;69.87
67862;DHT22;54665;51.462;6.698;2022-07-05T01:33:30;15.97;69.67
67862;DHT22;54665;51.462;6.698;2022-07-05T01:35:56;15.87;69.53
67862;DHT22;54665;51.462;6.698;2022-07-05T01:38:23;15.82;69.27
67862;DHT22;54665;51.462;6.698;2022-07-05T01:40:48;15.76;69.40
67862;DHT22;54665;51.462;6.698;2022-07-05T01:43:18;15.70;69.79
67862;DHT22;54665;51.462;6.698;2022-07-05T01:45:46;15.61;70.51
67862;DHT22;54665;51.462;6.698;2022-07-05T01:48:13;15.70;70.78
67862;DHT22;54665;51.462;6.698;2022-07-05T01:50:44;15.73;70.47
67862;DHT22;54665;51.462;6.698;2022-07-05T01:53:17;15.67;70.82
67862;DHT22;54665;51.462;6.698;2022-07-05T01:55:44;15.51;71.37
67862;DHT22;54665;51.462;6.698;2022-07-05T01:58:10;15.32;71.99
67862;DHT22;54665;51.462;6.698;2022-07-05T02:00:49;15.11;72.66
67862;DHT22;54665;51.462;6.698;2022-07-05T02:03:16;14.98;73.21
67862;DHT22;54665;51.462;6.698;2022-07-05T02:05:43;14.85;73.77
67862;DHT22;54665;51.462;6.698;2022-07-05T02:08:15;14.70;74.25
67862;DHT22;54665;51.462;6.698;2022-07-05T02:10:41;14.52;74.92
67862;DHT22;54665;51.462;6.698;2022-07-05T02:13:07;14.32;75.53
67862;DHT22;54665;51.462;6.698;2022-07-05T02:15:36;14.18;76.24
67862;DHT22;54665;51.462;6.698;2022-07-05T02:18:06;14.15;77.07
67862;DHT22;54665;51.462;6.698;2022-07-05T02:20:32;14.15;77.72
67862;DHT22;54665;51.462;6.698;2022-07-05T02:23:00;14.12;77.88
67862;DHT22;54665;51.462;6.698;2022-07-05T02:25:26;14.09;78.17
67862;DHT22;54665;51.462;6.698;2022-07-05T02:27:54;14.13;78.36
67862;DHT22;54665;51.462;6.698;2022-07-05T02:30:20;14.12;78.28
67862;DHT22;54665;51.462;6.698;2022-07-05T02:32:46;14.09;78.41
67862;DHT22;54665;51.462;6.698;2022-07-05T02:35:13;14.00;78.59
67862;DHT22;54665;51.462;6.698;2022-07-05T02:37:39;13.85;78.77
67862;DHT22;54665;51.462;6.698;2022-07-05T02:40:10;13.68;79.24
67862;DHT22;54665;51.462;6.698;2022-07-05T02:42:39;13.55;80.23
67862;DHT22;54665;51.462;6.698;2022-07-05T02:45:07;13.44;81.14
67862;DHT22;54665;51.462;6.698;2022-07-05T02:47:34;13.33;81.81
67862;DHT22;54665;51.462;6.698;2022-07-05T02:50:05;13.23;82.47
67862;DHT22;54665;51.462;6.698;2022-07-05T02:52:35;13.12;82.89
67862;DHT22;54665;51.462;6.698;2022-07-05T02:55:03;12.95;83.06
67862;DHT22;54665;51.462;6.698;2022-07-05T02:57:29;12.85;83.38
67862;DHT22;54665;51.462;6.698;2022-07-05T02:59:57;12.76;83.98
67862;DHT22;54665;51.462;6.698;2022-07-05T03:02:29;12.76;84.83
67862;DHT22;54665;51.462;6.698;2022-07-05T03:04:57;12.76;85.32
67862;DHT22;54665;51.462;6.698;2022-07-05T03:07:24;12.75;85.54
67862;DHT22;54665;51.462;6.698;2022-07-05T03:09:49;12.66;85.51
67862;DHT22;54665;51.462;6.698;2022-07-05T03:12:15;12.55;85.53
67862;DHT22;54665;51.462;6.698;2022-07-05T03:14:41;12.46;85.81
67862;DHT22;54665;51.462;6.698;2022-07-05T03:17:06;12.45;86.10
67862;DHT22;54665;51.462;6.698;2022-07-05T03:19:32;12.51;86.59
67862;DHT22;54665;51.462;6.698;2022-07-05T03:21:58;12.58;86.89
67862;DHT22;54665;51.462;6.698;2022-07-05T03:24:24;12.68;87.07
67862;DHT22;54665;51.462;6.698;2022-07-05T03:26:49;12.75;87.04
67862;DHT22;54665;51.462;6.698;2022-07-05T03:29:15;12.88;86.81
67862;DHT22;54665;51.462;6.698;2022-07-05T03:31:42;12.97;86.45
67862;DHT22;54665;51.462;6.698;2022-07-05T03:34:07;13.04;85.96
67862;DHT22;54665;51.462;6.698;2022-07-05T03:36:33;13.03;85.61
67862;DHT22;54665;51.462;6.698;2022-07-05T03:39:01;12.88;85.27
67862;DHT22;54665;51.462;6.698;2022-07-05T03:41:28;12.75;85.22
67862;DHT22;54665;51.462;6.698;2022-07-05T03:43:53;12.63;85.30
67862;DHT22;54665;51.462;6.698;2022-07-05T03:46:20;12.58;85.54
67862;DHT22;54665;51.462;6.698;2022-07-05T03:48:45;12.62;86.15
67862;DHT22;54665;51.462;6.698;2022-07-05T03:51:14;12.61;86.33
67862;DHT22;54665;51.462;6.698;2022-07-05T03:53:40;12.49;86.50
67862;DHT22;54665;51.462;6.698;2022-07-05T03:56:08;12.58;87.03
67862;DHT22;54665;51.462;6.698;2022-07-05T03:58:34;12.61;87.39
67862;DHT22;54665;51.462;6.698;2022-07-05T04:01:00;12.61;87.41
67862;DHT22;54665;51.462;6.698;2022-07-05T04:03:26;12.61;87.31
67862;DHT22;54665;51.462;6.698;2022-07-05T04:05:52;12.58;87.22
67862;DHT22;54665;51.462;6.698;2022-07-05T04:08:18;12.58;87.36
67862;DHT22;54665;51.462;6.698;2022-07-05T04:10:45;12.52;87.37
67862;DHT22;54665;51.462;6.698;2022-07-05T04:13:14;12.51;87.56
67862;DHT22;54665;51.462;6.698;2022-07-05T04:15:40;12.61;87.99
67862;DHT22;54665;51.462;6.698;2022-07-05T04:18:05;12.66;88.42
67862;DHT22;54665;51.462;6.698;2022-07-05T04:20:36;12.78;88.76
67862;DHT22;54665;51.462;6.698;2022-07-05T04:23:03;12.86;88.81
67862;DHT22;54665;51.462;6.698;2022-07-05T04:25:29;12.90;88.76
67862;DHT22;54665;51.462;6.698;2022-07-05T04:28:03;12.92;88.67
67862;DHT22;54665;51.462;6.698;2022-07-05T04:30:32;12.99;88.58
67862;DHT22;54665;51.462;6.698;2022-07-05T04:32:59;13.03;88.00
67862;DHT22;54665;51.462;6.698;2022-07-05T04:35:24;13.10;88.02
67862;DHT22;54665;51.462;6.698;2022-07-05T04:37:51;13.27;88.10
67862;DHT22;54665;51.462;6.698;2022-07-05T04:40:17;13.51;88.02
67862;DHT22;54665;51.462;6.698;2022-07-05T04:42:43;13.74;87.84
67862;DHT22;54665;51.462;6.698;2022-07-05T04:45:10;13.92;86.49
67862;DHT22;54665;51.462;6.698;2022-07-05T04:47:37;14.02;86.03
67862;DHT22;54665;51.462;6.698;2022-07-05T04:50:05;14.11;85.69
67862;DHT22;54665;51.462;6.698;2022-07-05T04:52:32;14.28;84.87
67862;DHT22;54665;51.462;6.698;2022-07-05T04:54:58;14.52;83.63
67862;DHT22;54665;51.462;6.698;2022-07-05T04:57:23;14.81;82.15
67862;DHT22;54665;51.462;6.698;2022-07-05T04:59:48;15.05;81.20
67862;DHT22;54665;51.462;6.698;2022-07-05T05:02:14;15.39;79.46
67862;DHT22;54665;51.462;6.698;2022-07-05T05:04:40;15.73;78.30
67862;DHT22;54665;51.462;6.698;2022-07-05T05:07:05;16.05;75.68
67862;DHT22;54665;51.462;6.698;2022-07-05T05:09:30;16.33;74.10
67862;DHT22;54665;51.462;6.698;2022-07-05T05:11:56;16.46;72.83
67862;DHT22;54665;51.462;6.698;2022-07-05T05:14:21;16.51;72.27
67862;DHT22;54665;51.462;6.698;2022-07-05T05:16:47;16.53;71.25
67862;DHT22;54665;51.462;6.698;2022-07-05T05:19:12;16.54;70.86
67862;DHT22;54665;51.462;6.698;2022-07-05T05:21:37;16.57;70.93
67862;DHT22;54665;51.462;6.698;2022-07-05T05:24:03;16.65;70.32
67862;DHT22;54665;51.462;6.698;2022-07-05T05:26:29;16.71;70.53
67862;DHT22;54665;51.462;6.698;2022-07-05T05:28:54;16.82;70.21
67862;DHT22;54665;51.462;6.698;2022-07-05T05:31:20;16.96;69.54
67862;DHT22;54665;51.462;6.698;2022-07-05T05:33:45;17.11;68.84
67862;DHT22;54665;51.462;6.698;2022-07-05T05:36:11;17.30;68.29
67862;DHT22;54665;51.462;6.698;2022-07-05T05:38:37;17.53;68.28
67862;DHT22;54665;51.462;6.698;2022-07-05T05:41:02;17.67;68.31
67862;DHT22;54665;51.462;6.698;2022-07-05T05:43:28;17.74;67.91
67862;DHT22;54665;51.462;6.698;2022-07-05T05:45:53;17.88;67.94
67862;DHT22;54665;51.462;6.698;2022-07-05T05:48:19;17.80;68.72
67862;DHT22;54665;51.462;6.698;2022-07-05T05:50:45;17.70;68.45
67862;DHT22;54665;51.462;6.698;2022-07-05T05:53:11;17.57;68.60
67862;DHT22;54665;51.462;6.698;2022-07-05T05:55:37;17.60;69.05
67862;DHT22;54665;51.462;6.698;2022-07-05T05:58:15;17.66;69.33
67862;DHT22;54665;51.462;6.698;2022-07-05T06:00:44;17.91;68.57
67862;DHT22;54665;51.462;6.698;2022-07-05T06:03:14;18.32;66.10
67862;DHT22;54665;51.462;6.698;2022-07-05T06:05:41;19.38;62.01
67862;DHT22;54665;51.462;6.698;2022-07-05T06:08:06;19.92;60.48
67862;DHT22;54665;51.462;6.698;2022-07-05T06:10:33;20.73;57.63
67862;DHT22;54665;51.462;6.698;2022-07-05T06:13:01;21.85;56.78
67862;DHT22;54665;51.462;6.698;2022-07-05T06:15:27;22.69;54.39
67862;DHT22;54665;51.462;6.698;2022-07-05T06:17:53;23.23;52.03
67862;DHT22;54665;51.462;6.698;2022-07-05T06:20:21;23.52;49.72
67862;DHT22;54665;51.462;6.698;2022-07-05T06:22:47;23.45;48.83
67862;DHT22;54665;51.462;6.698;2022-07-05T06:25:13;24.08;47.52
67862;DHT22;54665;51.462;6.698;2022-07-05T06:27:42;24.00;46.53
67862;DHT22;54665;51.462;6.698;2022-07-05T06:30:09;23.87;46.99
67862;DHT22;54665;51.462;6.698;2022-07-05T06:32:35;24.07;45.32
67862;DHT22;54665;51.462;6.698;2022-07-05T06:35:00;24.44;44.80
67862;DHT22;54665;51.462;6.698;2022-07-05T06:37:26;24.83;44.04
67862;DHT22;54665;51.462;6.698;2022-07-05T06:39:51;25.10;43.93
67862;DHT22;54665;51.462;6.698;2022-07-05T06:42:16;25.46;43.17
67862;DHT22;54665;51.462;6.698;2022-07-05T06:44:45;24.93;43.65
67862;DHT22;54665;51.462;6.698;2022-07-05T06:47:10;23.06;44.68
67862;DHT22;54665;51.462;6.698;2022-07-05T06:49:36;24.75;43.13
67862;DHT22;54665;51.462;6.698;2022-07-05T06:52:01;24.45;43.55
67862;DHT22;54665;51.462;6.698;2022-07-05T06:54:27;23.46;46.23
67862;DHT22;54665;51.462;6.698;2022-07-05T06:56:52;24.92;42.72
67862;DHT22;54665;51.462;6.698;2022-07-05T06:59:21;25.75;41.69
67862;DHT22;54665;51.462;6.698;2022-07-05T07:01:46;26.01;40.28
67862;DHT22;54665;51.462;6.698;2022-07-05T07:04:12;26.16;40.43
67862;DHT22;54665;51.462;6.698;2022-07-05T07:06:37;27.21;37.39
67862;DHT22;54665;51.462;6.698;2022-07-05T07:09:02;26.36;38.42
67862;DHT22;54665;51.462;6.698;2022-07-05T07:11:43;26.50;38.76
67862;DHT22;54665;51.462;6.698;2022-07-05T07:14:09;26.70;39.92
67862;DHT22;54665;51.462;6.698;2022-07-05T07:16:35;26.25;39.69
67862;DHT22;54665;51.462;6.698;2022-07-05T07:19:00;24.80;42.74
67862;DHT22;54665;51.462;6.698;2022-07-05T07:21:26;23.46;46.38
67862;DHT22;54665;51.462;6.698;2022-07-05T07:23:51;22.33;50.05
67862;DHT22;54665;51.462;6.698;2022-07-05T07:26:16;22.88;47.29
67862;DHT22;54665;51.462;6.698;2022-07-05T07:28:42;23.57;45.01
67862;DHT22;54665;51.462;6.698;2022-07-05T07:31:07;23.41;45.54
67862;DHT22;54665;51.462;6.698;2022-07-05T07:33:33;23.60;44.55
67862;DHT22;54665;51.462;6.698;2022-07-05T07:35:59;23.41;44.68
67862;DHT22;54665;51.462;6.698;2022-07-05T07:38:24;22.68;47.17
67862;DHT22;54665;51.462;6.698;2022-07-05T07:40:51;21.94;49.46
67862;DHT22;54665;51.462;6.698;2022-07-05T07:43:17;21.30;51.36
67862;DHT22;54665;51.462;6.698;2022-07-05T07:45:42;20.93;51.53
67862;DHT22;54665;51.462;6.698;2022-07-05T07:48:08;21.12;51.81
67862;DHT22;54665;51.462;6.698;2022-07-05T07:50:34;23.46;46.50
67862;DHT22;54665;51.462;6.698;2022-07-05T07:53:00;24.66;44.28
67862;DHT22;54665;51.462;6.698;2022-07-05T07:55:25;24.21;44.59
67862;DHT22;54665;51.462;6.698;2022-07-05T07:57:51;23.80;44.39
67862;DHT22;54665;51.462;6.698;2022-07-05T08:00:16;24.58;42.45
67862;DHT22;54665;51.462;6.698;2022-07-05T08:02:42;24.51;43.21
67862;DHT22;54665;51.462;6.698;2022-07-05T08:05:07;24.52;43.44
67862;DHT22;54665;51.462;6.698;2022-07-05T08:07:35;24.04;44.72
67862;DHT22;54665;51.462;6.698;2022-07-05T08:10:01;23.20;44.82
67862;DHT22;54665;51.462;6.698;2022-07-05T08:12:27;23.52;43.95
67862;DHT22;54665;51.462;6.698;2022-07-05T08:14:52;24.52;42.14
67862;DHT22;54665;51.462;6.698;2022-07-05T08:17:18;24.20;42.10
67862;DHT22;54665;51.462;6.698;2022-07-05T08:19:46;24.00;41.92
67862;DHT22;54665;51.462;6.698;2022-07-05T08:22:31;23.39;43.73
67862;DHT22;54665;51.462;6.698;2022-07-05T08:24:57;23.90;43.46
67862;DHT22;54665;51.462;6.698;2022-07-05T08:27:23;24.79;41.27
67862;DHT22;54665;51.462;6.698;2022-07-05T08:29:51;26.43;38.38
67862;DHT22;54665;51.462;6.698;2022-07-05T08:32:17;26.82;37.73
67862;DHT22;54665;51.462;6.698;2022-07-05T08:34:42;25.89;38.86
67862;DHT22;54665;51.462;6.698;2022-07-05T08:37:08;26.28;38.76
67862;DHT22;54665;51.462;6.698;2022-07-05T08:39:34;25.05;39.18
67862;DHT22;54665;51.462;6.698;2022-07-05T08:41:59;24.48;40.49
67862;DHT22;54665;51.462;6.698;2022-07-05T08:44:28;25.30;39.35
67862;DHT22;54665;51.462;6.698;2022-07-05T08:46:55;25.64;39.59
67862;DHT22;54665;51.462;6.698;2022-07-05T08:49:25;25.16;39.52
67862;DHT22;54665;51.462;6.698;2022-07-05T08:52:02;24.59;42.63
67862;DHT22;54665;51.462;6.698;2022-07-05T08:54:31;25.09;41.27
67862;DHT22;54665;51.462;6.698;2022-07-05T08:56:57;25.60;41.74
67862;DHT22;54665;51.462;6.698;2022-07-05T08:59:22;26.14;40.81
67862;DHT22;54665;51.462;6.698;2022-07-05T09:01:49;26.16;39.92
67862;DHT22;54665;51.462;6.698;2022-07-05T09:04:16;24.76;42.66
67862;DHT22;54665;51.462;6.698;2022-07-05T09:06:46;26.02;40.16
67862;DHT22;54665;51.462;6.698;2022-07-05T09:09:12;26.05;39.45
67862;DHT22;54665;51.462;6.698;2022-07-05T09:11:41;26.08;38.87
67862;DHT22;54665;51.462;6.698;2022-07-05T09:14:26;26.76;37.21
67862;DHT22;54665;51.462;6.698;2022-07-05T09:16:52;27.39;38.37
67862;DHT22;54665;51.462;6.698;2022-07-05T09:19:18;27.65;35.85
67862;DHT22;54665;51.462;6.698;2022-07-05T09:21:44;27.10;36.43
67862;DHT22;54665;51.462;6.698;2022-07-05T09:24:15;27.35;36.11
67862;DHT22;54665;51.462;6.698;2022-07-05T09:26:45;27.00;36.60
67862;DHT22;54665;51.462;6.698;2022-07-05T09:29:18;27.45;35.50
67862;DHT22;54665;51.462;6.698;2022-07-05T09:31:47;27.58;34.38
67862;DHT22;54665;51.462;6.698;2022-07-05T09:34:21;27.48;33.56
67862;DHT22;54665;51.462;6.698;2022-07-05T09:36:59;26.46;35.71
67862;DHT22;54665;51.462;6.698;2022-07-05T09:42:17;24.38;40.93
67862;DHT22;54665;51.462;6.698;2022-07-05T09:44:48;23.27;42.83
67862;DHT22;54665;51.462;6.698;2022-07-05T09:47:16;22.55;45.44
67862;DHT22;54665;51.462;6.698;2022-07-05T09:49:48;22.16;46.80
67862;DHT22;54665;51.462;6.698;2022-07-05T09:57:27;23.46;41.40
67862;DHT22;54665;51.462;6.698;2022-07-05T10:00:03;24.15;41.92
67862;DHT22;54665;51.462;6.698;2022-07-05T10:02:45;25.85;37.91
67862;DHT22;54665;51.462;6.698;2022-07-05T10:05:15;26.83;34.80
67862;DHT22;54665;51.462;6.698;2022-07-05T10:07:57;27.47;33.93
67862;DHT22;54665;51.462;6.698;2022-07-05T10:10:30;27.10;35.09
67862;DHT22;54665;51.462;6.698;2022-07-05T10:12:57;27.03;34.65
67862;DHT22;54665;51.462;6.698;2022-07-05T10:15:30;27.37;35.05
67862;DHT22;54665;51.462;6.698;2022-07-05T10:18:00;27.12;33.60
67862;DHT22;54665;51.462;6.698;2022-07-05T10:23:12;25.81;36.22
67862;DHT22;54665;51.462;6.698;2022-07-05T10:25:39;24.45;39.86
67862;DHT22;54665;51.462;6.698;2022-07-05T10:28:05;23.54;42.99
67862;DHT22;54665;51.462;6.698;2022-07-05T10:30:32;22.72;44.32
67862;DHT22;54665;51.462;6.698;2022-07-05T10:32:59;22.54;45.56
67862;DHT22;54665;51.462;6.698;2022-07-05T10:35:27;22.37;45.73
67862;DHT22;54665;51.462;6.698;2022-07-05T10:37:53;22.20;45.55
67862;DHT22;54665;51.462;6.698;2022-07-05T10:40:18;22.40;45.45
67862;DHT22;54665;51.462;6.698;2022-07-05T10:42:49;22.87;43.70
67862;DHT22;54665;51.462;6.698;2022-07-05T10:45:25;22.99;43.73
67862;DHT22;54665;51.462;6.698;2022-07-05T10:48:27;23.94;41.95
67862;DHT22;54665;51.462;6.698;2022-07-05T10:58:35;24.42;40.63
67862;DHT22;54665;51.462;6.698;2022-07-05T11:03:52;24.89;36.37
67862;DHT22;54665;51.462;6.698;2022-07-05T11:17:09;24.99;35.87
67862;DHT22;54665;51.462;6.698;2022-07-05T11:19:32;25.47;36.59
67862;DHT22;54665;51.462;6.698;2022-07-05T11:22:05;26.14;35.23
67862;DHT22;54665;51.462;6.698;2022-07-05T11:24:33;26.31;34.57
67862;DHT22;54665;51.462;6.698;2022-07-05T11:27:00;25.84;34.69
67862;DHT22;54665;51.462;6.698;2022-07-05T11:32:12;24.86;35.75
67862;DHT22;54665;51.462;6.698;2022-07-05T11:34:39;24.55;35.92
67862;DHT22;54665;51.462;6.698;2022-07-05T11:37:26;25.22;36.33
67862;DHT22;54665;51.462;6.698;2022-07-05T11:42:37;25.16;35.68
67862;DHT22;54665;51.462;6.698;2022-07-05T11:45:08;24.52;38.20
67862;DHT22;54665;51.462;6.698;2022-07-05T11:47:35;24.61;39.21
67862;DHT22;54665;51.462;6.698;2022-07-05T11:50:01;24.92;39.08
67862;DHT22;54665;51.462;6.698;2022-07-05T11:52:28;25.33;36.82
67862;DHT22;54665;51.462;6.698;2022-07-05T11:54:56;25.94;37.26
67862;DHT22;54665;51.462;6.698;2022-07-05T11:57:22;25.81;36.71
67862;DHT22;54665;51.462;6.698;2022-07-05T11:59:48;25.30;36.53
67862;DHT22;54665;51.462;6.698;2022-07-05T12:02:13;25.50;37.29
67862;DHT22;54665;51.462;6.698;2022-07-05T12:04:39;25.16;37.95
67862;DHT22;54665;51.462;6.698;2022-07-05T12:07:04;24.77;39.08
67862;DHT22;54665;51.462;6.698;2022-07-05T12:09:32;24.73;39.81
67862;DHT22;54665;51.462;6.698;2022-07-05T12:12:20;25.00;38.56
67862;DHT22;54665;51.462;6.698;2022-07-05T12:15:05;24.22;39.19
67862;DHT22;54665;51.462;6.698;2022-07-05T12:17:33;24.22;41.95
67862;DHT22;54665;51.462;6.698;2022-07-05T12:19:59;24.65;39.46
67862;DHT22;54665;51.462;6.698;2022-07-05T12:22:39;24.79;37.86
67862;DHT22;54665;51.462;6.698;2022-07-05T12:25:06;24.71;39.28
67862;DHT22;54665;51.462;6.698;2022-07-05T12:27:35;24.27;39.66
67862;DHT22;54665;51.462;6.698;2022-07-05T12:30:01;24.01;40.41
67862;DHT22;54665;51.462;6.698;2022-07-05T12:32:28;24.31;39.92
67862;DHT22;54665;51.462;6.698;2022-07-05T12:34:58;24.41;39.98
67862;DHT22;54665;51.462;6.698;2022-07-05T12:37:26;24.56;40.53
67862;DHT22;54665;51.462;6.698;2022-07-05T12:40:07;24.24;39.50
67862;DHT22;54665;51.462;6.698;2022-07-05T12:42:35;24.22;39.15
67862;DHT22;54665;51.462;6.698;2022-07-05T12:45:15;24.42;38.42
67862;DHT22;54665;51.462;6.698;2022-07-05T12:47:52;24.34;39.34
67862;DHT22;54665;51.462;6.698;2022-07-05T12:50:19;24.13;39.77
67862;DHT22;54665;51.462;6.698;2022-07-05T12:52:57;24.25;40.69
67862;DHT22;54665;51.462;6.698;2022-07-05T12:55:36;24.49;40.43
67862;DHT22;54665;51.462;6.698;2022-07-05T12:58:20;24.52;39.75
67862;DHT22;54665;51.462;6.698;2022-07-05T13:04:33;24.44;39.90
67862;DHT22;54665;51.462;6.698;2022-07-05T13:07:03;24.05;40.84
67862;DHT22;54665;51.462;6.698;2022-07-05T13:14:50;23.56;41.55
67862;DHT22;54665;51.462;6.698;2022-07-05T13:17:17;23.33;42.41
67862;DHT22;54665;51.462;6.698;2022-07-05T13:19:44;23.22;43.69
67862;DHT22;54665;51.462;6.698;2022-07-05T13:22:10;23.11;44.49
67862;DHT22;54665;51.462;6.698;2022-07-05T13:24:36;23.41;43.84
67862;DHT22;54665;51.462;6.698;2022-07-05T13:27:02;24.15;43.45
67862;DHT22;54665;51.462;6.698;2022-07-05T13:29:28;24.56;43.24
67862;DHT22;54665;51.462;6.698;2022-07-05T13:31:54;24.79;42.38
67862;DHT22;54665;51.462;6.698;2022-07-05T13:34:20;25.22;40.34
67862;DHT22;54665;51.462;6.698;2022-07-05T13:36:49;26.56;37.56
67862;DHT22;54665;51.462;6.698;2022-07-05T13:39:16;27.34;36.54
67862;DHT22;54665;51.462;6.698;2022-07-05T13:41:41;27.21;35.49
67862;DHT22;54665;51.462;6.698;2022-07-05T13:44:07;25.05;39.64
67862;DHT22;54665;51.462;6.698;2022-07-05T13:46:33;23.90;42.58
67862;DHT22;54665;51.462;6.698;2022-07-05T13:48:58;23.49;44.79
67862;DHT22;54665;51.462;6.698;2022-07-05T13:51:23;22.99;44.22
67862;DHT22;54665;51.462;6.698;2022-07-05T13:53:49;22.68;45.30
67862;DHT22;54665;51.462;6.698;2022-07-05T13:56:14;22.76;45.70
67862;DHT22;54665;51.462;6.698;2022-07-05T13:58:40;22.94;45.60
67862;DHT22;54665;51.462;6.698;2022-07-05T14:01:05;22.95;46.24
67862;DHT22;54665;51.462;6.698;2022-07-05T14:03:30;23.06;46.89
67862;DHT22;54665;51.462;6.698;2022-07-05T14:05:56;22.94;47.21
67862;DHT22;54665;51.462;6.698;2022-07-05T14:08:23;22.36;48.67
67862;DHT22;54665;51.462;6.698;2022-07-05T14:10:55;22.58;48.91
67862;DHT22;54665;51.462;6.698;2022-07-05T14:13:23;22.63;48.48
67862;DHT22;54665;51.462;6.698;2022-07-05T14:15:49;22.48;49.08
67862;DHT22;54665;51.462;6.698;2022-07-05T14:20:45;23.11;48.65
67862;DHT22;54665;51.462;6.698;2022-07-05T14:23:11;23.74;46.79
67862;DHT22;54665;51.462;6.698;2022-07-05T14:25:37;24.48;44.31
67862;DHT22;54665;51.462;6.698;2022-07-05T14:28:04;25.30;42.59
67862;DHT22;54665;51.462;6.698;2022-07-05T14:30:37;24.83;42.73
67862;DHT22;54665;51.462;6.698;2022-07-05T14:33:04;24.45;43.10
67862;DHT22;54665;51.462;6.698;2022-07-05T14:35:31;24.34;43.97
67862;DHT22;54665;51.462;6.698;2022-07-05T14:37:57;24.45;42.74
67862;DHT22;54665;51.462;6.698;2022-07-05T14:40:23;24.83;42.55
67862;DHT22;54665;51.462;6.698;2022-07-05T14:42:50;25.19;43.40
67862;DHT22;54665;51.462;6.698;2022-07-05T14:45:16;25.05;42.42
67862;DHT22;54665;51.462;6.698;2022-07-05T14:47:41;24.87;42.07
67862;DHT22;54665;51.462;6.698;2022-07-05T14:50:07;24.56;42.53
67862;DHT22;54665;51.462;6.698;2022-07-05T14:52:32;24.80;43.26
67862;DHT22;54665;51.462;6.698;2022-07-05T14:54:57;24.20;43.29
67862;DHT22;54665;51.462;6.698;2022-07-05T14:57:23;23.86;43.78
67862;DHT22;54665;51.462;6.698;2022-07-05T14:59:48;23.41;44.29
67862;DHT22;54665;51.462;6.698;2022-07-05T15:02:14;23.08;45.95
67862;DHT22;54665;51.462;6.698;2022-07-05T15:04:40;22.78;45.49
67862;DHT22;54665;51.462;6.698;2022-07-05T15:07:06;22.53;46.71
67862;DHT22;54665;51.462;6.698;2022-07-05T15:09:31;22.40;47.73
67862;DHT22;54665;51.462;6.698;2022-07-05T15:11:57;22.34;48.10
67862;DHT22;54665;51.462;6.698;2022-07-05T15:14:22;22.30;48.38
67862;DHT22;54665;51.462;6.698;2022-07-05T15:16:48;22.32;48.33
67862;DHT22;54665;51.462;6.698;2022-07-05T15:19:13;22.25;47.98
67862;DHT22;54665;51.462;6.698;2022-07-05T15:21:38;22.14;47.95
67862;DHT22;54665;51.462;6.698;2022-07-05T15:24:05;22.20;48.00
67862;DHT22;54665;51.462;6.698;2022-07-05T15:26:31;22.12;48.43
67862;DHT22;54665;51.462;6.698;2022-07-05T15:29:03;22.10;48.01
67862;DHT22;54665;51.462;6.698;2022-07-05T15:31:30;22.06;48.79
67862;DHT22;54665;51.462;6.698;2022-07-05T15:33:57;21.96;49.01
67862;DHT22;54665;51.462;6.698;2022-07-05T15:36:22;21.81;48.81
67862;DHT22;54665;51.462;6.698;2022-07-05T15:38:48;21.66;48.88
67862;DHT22;54665;51.462;6.698;2022-07-05T15:41:14;21.63;48.87
67862;DHT22;54665;51.462;6.698;2022-07-05T15:43:39;21.69;49.07
67862;DHT22;54665;51.462;6.698;2022-07-05T15:46:04;21.78;49.43
67862;DHT22;54665;51.462;6.698;2022-07-05T15:48:30;22.14;49.24
67862;DHT22;54665;51.462;6.698;2022-07-05T15:50:55;22.23;48.96
67862;DHT22;54665;51.462;6.698;2022-07-05T15:53:20;22.29;48.38
67862;DHT22;54665;51.462;6.698;2022-07-05T15:55:46;22.30;49.09
67862;DHT22;54665;51.462;6.698;2022-07-05T15:58:11;22.17;49.50
67862;DHT22;54665;51.462;6.698;2022-07-05T16:00:36;22.00;50.09
67862;DHT22;54665;51.462;6.698;2022-07-05T16:03:02;21.90;50.67
67862;DHT22;54665;51.462;6.698;2022-07-05T16:05:27;21.61;50.83
67862;DHT22;54665;51.462;6.698;2022-07-05T16:07:53;21.42;51.79
67862;DHT22;54665;51.462;6.698;2022-07-05T16:10:18;21.35;52.24
67862;DHT22;54665;51.462;6.698;2022-07-05T16:12:45;21.30;52.20
67862;DHT22;54665;51.462;6.698;2022-07-05T16:15:10;21.42;52.60
67862;DHT22;54665;51.462;6.698;2022-07-05T16:17:56;21.34;51.96
67862;DHT22;54665;51.462;6.698;2022-07-05T16:20:22;21.32;51.55